Time;durP1;ratioP1;P1;durP2;ratioP2;P2;SDS_P1;SDS_P2;PMS_P1;PMS_P2;Temp;Humidity;BMP_temperature;BMP_pressure;BME280_temperature;BME280_humidity;BME280_pressure;Samples;Min_cycle;Max_cycle;Signal;HPM_P1;HPM_P2
2021/04/09 00:00:24;;;;;;;26.10;12.40;;;;;;;-143.98;100.00;68091.63;5081405;28;20056;-80
2021/04/09 00:02:50;;;;;;;26.08;13.20;;;;;;;-143.98;100.00;68091.63;5079972;28;20052;-80
2021/04/09 00:05:21;;;;;;;18.30;12.02;;;;;;;-143.98;100.00;68091.63;5078869;28;20048;-80
2021/04/09 00:07:50;;;;;;;27.73;12.75;;;;;;;-143.98;100.00;68091.63;5064245;28;20056;-80
2021/04/09 00:10:19;;;;;;;24.75;12.27;;;;;;;-143.98;100.00;68091.63;5081368;28;20124;-80
2021/04/09 00:12:45;;;;;;;24.83;12.60;;;;;;;-143.98;100.00;68091.63;5063894;28;20107;-80
2021/04/09 00:15:15;;;;;;;21.98;12.88;;;;;;;-143.98;100.00;68091.63;5088672;28;20036;-80
2021/04/09 00:17:47;;;;;;;24.63;12.68;;;;;;;-143.98;100.00;68091.63;5097357;28;20148;-80
2021/04/09 00:20:17;;;;;;;24.08;12.43;;;;;;;-143.98;100.00;68091.63;5079566;28;20148;-80
2021/04/09 00:22:47;;;;;;;21.52;11.93;;;;;;;-143.98;100.00;68091.63;5079872;28;20315;-80
2021/04/09 00:25:15;;;;;;;19.02;11.98;;;;;;;-143.98;100.00;68091.63;5091561;28;20047;-80
2021/04/09 00:27:42;;;;;;;21.77;11.77;;;;;;;-143.98;100.00;68091.63;5081752;28;20056;-80
2021/04/09 00:30:10;;;;;;;25.45;12.02;;;;;;;-143.98;100.00;68091.63;5064230;28;20056;-78
2021/04/09 00:32:37;;;;;;;29.20;12.98;;;;;;;-143.98;100.00;68091.63;5079166;28;20071;-78
2021/04/09 00:35:03;;;;;;;20.80;12.13;;;;;;;-143.98;100.00;68091.63;5078997;28;20395;-80
2021/04/09 00:37:32;;;;;;;25.98;11.80;;;;;;;-143.98;100.00;68091.63;5081178;28;20166;-80
2021/04/09 00:40:01;;;;;;;22.30;12.00;;;;;;;-143.98;100.00;68091.63;5062748;28;20086;-80
2021/04/09 00:42:27;;;;;;;25.45;12.43;;;;;;;-143.98;100.00;68091.63;5063432;28;20113;-80
2021/04/09 00:44:57;;;;;;;21.20;11.73;;;;;;;-143.98;100.00;68091.63;5098476;28;20056;-80
2021/04/09 00:47:27;;;;;;;23.73;12.10;;;;;;;-143.98;100.00;68091.63;5081694;28;20268;-80
2021/04/09 00:50:04;;;;;;;21.98;12.82;;;;;;;-143.98;100.00;68091.63;5078016;28;20044;-80
2021/04/09 00:52:32;;;;;;;19.00;11.40;;;;;;;-143.98;100.00;68091.63;5092996;28;20059;-80
2021/04/09 00:55:00;;;;;;;24.13;11.52;;;;;;;-143.98;100.00;68091.63;5091450;28;20060;-80
2021/04/09 00:57:27;;;;;;;21.35;11.77;;;;;;;-143.98;100.00;68091.63;5074104;28;20060;-80
2021/04/09 00:59:53;;;;;;;21.25;13.07;;;;;;;-143.98;100.00;68091.63;5072151;28;20422;-80
2021/04/09 01:02:19;;;;;;;19.27;12.13;;;;;;;-143.98;100.00;68091.63;5070032;28;20091;-80
2021/04/09 01:04:46;;;;;;;23.55;13.48;;;;;;;-143.98;100.00;68091.63;5067828;28;20044;-81
2021/04/09 01:07:12;;;;;;;24.50;12.48;;;;;;;-143.98;100.00;68091.63;5079283;28;20060;-81
2021/04/09 01:09:38;;;;;;;22.67;12.93;;;;;;;-143.98;100.00;68091.63;5079681;28;20087;-81
2021/04/09 01:12:05;;;;;;;20.52;11.48;;;;;;;-143.98;100.00;68091.63;5063366;28;20058;-81
2021/04/09 01:14:35;;;;;;;25.23;12.52;;;;;;;-143.98;100.00;68091.63;5063489;28;20371;-80
2021/04/09 01:17:08;;;;;;;20.30;11.80;;;;;;;-143.98;100.00;68091.63;5063863;28;20117;-80
2021/04/09 01:19:59;;;;;;;26.90;12.57;;;;;;;-143.98;100.00;68091.63;5062140;28;20052;-81
2021/04/09 01:22:32;;;;;;;21.52;12.35;;;;;;;-143.98;100.00;68091.63;5105339;28;20067;-80
2021/04/09 01:25:20;;;;;;;19.63;11.63;;;;;;;-143.98;100.00;68091.63;5107560;28;20051;-80
2021/04/09 01:28:22;;;;;;;24.58;11.88;;;;;;;-143.98;100.00;68091.63;5127772;28;20086;-80
2021/04/09 01:31:15;;;;;;;22.25;11.52;;;;;;;-143.98;100.00;68091.63;5084488;28;20327;-80
2021/04/09 01:33:43;;;;;;;20.90;11.60;;;;;;;-143.98;100.00;68091.63;5117881;28;20051;-80
2021/04/09 01:36:13;;;;;;;15.57;11.13;;;;;;;-143.98;100.00;68091.63;5108997;28;20055;-80
2021/04/09 01:38:44;;;;;;;26.60;11.73;;;;;;;-143.98;100.00;68091.63;5111734;28;20127;-80
2021/04/09 01:41:14;;;;;;;20.92;12.05;;;;;;;-143.98;100.00;68091.63;5111125;28;20128;-80
2021/04/09 01:43:43;;;;;;;21.52;12.68;;;;;;;-143.98;100.00;68091.63;5102077;28;20395;-80
2021/04/09 01:46:10;;;;;;;31.10;11.95;;;;;;;-143.98;100.00;68091.63;5081766;28;20079;-80
2021/04/09 01:48:39;;;;;;;21.48;12.40;;;;;;;-143.98;100.00;68091.63;5097881;28;20130;-80
2021/04/09 01:51:11;;;;;;;20.77;11.75;;;;;;;-143.98;100.00;68091.63;5081888;28;20059;-80
2021/04/09 01:53:42;;;;;;;22.63;11.88;;;;;;;-143.98;100.00;68091.63;5084171;28;20056;-81
2021/04/09 01:56:08;;;;;;;24.48;13.50;;;;;;;-143.98;100.00;68091.63;5083398;28;20117;-80
2021/04/09 01:58:36;;;;;;;20.20;12.30;;;;;;;-143.98;100.00;68091.63;5083281;28;20124;-80
2021/04/09 02:01:07;;;;;;;22.30;12.60;;;;;;;-143.98;100.00;68091.63;5082687;28;20055;-80
2021/04/09 02:03:41;;;;;;;24.98;11.60;;;;;;;-143.98;100.00;68091.63;5082771;28;20062;-81
2021/04/09 02:06:07;;;;;;;22.50;12.55;;;;;;;-143.98;100.00;68091.63;5081604;28;20371;-79
2021/04/09 02:08:35;;;;;;;21.08;12.63;;;;;;;-143.98;100.00;68091.63;5115159;28;20130;-79
2021/04/09 02:11:01;;;;;;;20.98;12.38;;;;;;;-143.98;100.00;68091.63;5098457;28;20060;-79
2021/04/09 02:13:28;;;;;;;25.20;12.27;;;;;;;-143.98;100.00;68091.63;5097409;28;20067;-79
2021/04/09 02:15:55;;;;;;;25.88;12.98;;;;;;;-143.98;100.00;68091.63;5081492;28;20063;-79
2021/04/09 02:18:26;;;;;;;19.70;11.73;;;;;;;-143.98;100.00;68091.63;5098711;28;20059;-79
2021/04/09 02:20:53;;;;;;;25.92;13.52;;;;;;;-143.98;100.00;68091.63;5098477;28;20063;-78
2021/04/09 02:23:20;;;;;;;21.15;11.93;;;;;;;-143.98;100.00;68091.63;5083243;28;20127;-79
2021/04/09 02:25:46;;;;;;;21.98;12.23;;;;;;;-143.98;100.00;68091.63;5095102;28;20139;-79
2021/04/09 02:28:15;;;;;;;25.20;13.05;;;;;;;-143.98;100.00;68091.63;5062620;28;20144;-81
2021/04/09 02:30:42;;;;;;;23.35;12.75;;;;;;;-143.98;100.00;68091.63;5078066;28;20063;-80
2021/04/09 02:33:08;;;;;;;24.05;13.05;;;;;;;-143.98;100.00;68091.63;5077083;28;20070;-80
2021/04/09 02:35:34;;;;;;;25.63;12.32;;;;;;;-143.98;100.00;68091.63;5060629;28;20371;-80
2021/04/09 02:38:01;;;;;;;24.02;12.18;;;;;;;-143.98;100.00;68091.63;5076633;28;20459;-81
2021/04/09 02:40:32;;;;;;;24.13;12.02;;;;;;;-143.98;100.00;68091.63;5078367;28;20462;-80
2021/04/09 02:42:58;;;;;;;23.95;12.93;;;;;;;-143.98;100.00;68091.63;5077942;28;20051;-80
2021/04/09 02:45:25;;;;;;;21.65;12.05;;;;;;;-143.98;100.00;68091.63;5078309;28;20060;-80
2021/04/09 02:47:53;;;;;;;22.40;11.63;;;;;;;-143.98;100.00;68091.63;5078258;28;20059;-80
2021/04/09 02:50:41;;;;;;;28.25;12.35;;;;;;;-143.98;100.00;68091.63;5060401;28;20060;-80
2021/04/09 02:53:16;;;;;;;27.83;12.40;;;;;;;-143.98;100.00;68091.63;5095412;28;20082;-81
2021/04/09 02:55:46;;;;;;;24.75;12.10;;;;;;;-143.98;100.00;68091.63;5081998;28;20063;-78
2021/04/09 02:58:15;;;;;;;19.25;11.05;;;;;;;-143.98;100.00;68091.63;5088975;28;20052;-80
2021/04/09 03:00:49;;;;;;;25.63;12.43;;;;;;;-143.98;100.00;68091.63;5081538;28;20121;-79
2021/04/09 03:03:16;;;;;;;27.75;13.57;;;;;;;-143.98;100.00;68091.63;5062426;28;20158;-79
2021/04/09 03:05:44;;;;;;;25.52;12.90;;;;;;;-143.98;100.00;68091.63;5077802;28;20056;-78
2021/04/09 03:08:11;;;;;;;21.45;11.55;;;;;;;-143.98;100.00;68091.63;5079912;28;20052;-79
2021/04/09 03:10:37;;;;;;;26.10;12.43;;;;;;;-143.98;100.00;68091.63;5069344;28;20064;-79
2021/04/09 03:13:06;;;;;;;19.70;12.48;;;;;;;-143.98;100.00;68091.63;5085754;28;20258;-79
2021/04/09 03:15:57;;;;;;;28.88;11.93;;;;;;;-143.98;100.00;68091.63;5085339;28;20206;-80
2021/04/09 03:18:25;;;;;;;26.45;11.65;;;;;;;-143.98;100.00;68091.63;5066608;28;20067;-80
2021/04/09 03:20:54;;;;;;;24.20;12.60;;;;;;;-143.98;100.00;68091.63;5062849;28;20155;-80
2021/04/09 03:23:22;;;;;;;25.50;12.07;;;;;;;-143.98;100.00;68091.63;5078569;28;20048;-80
2021/04/09 03:25:48;;;;;;;23.55;12.75;;;;;;;-143.98;100.00;68091.63;5076425;28;20096;-80
2021/04/09 03:28:15;;;;;;;22.75;11.65;;;;;;;-143.98;100.00;68091.63;5076891;28;20085;-79
2021/04/09 03:30:49;;;;;;;25.63;12.80;;;;;;;-143.98;100.00;68091.63;5062798;28;20056;-80
2021/04/09 03:33:25;;;;;;;24.10;11.77;;;;;;;-143.98;100.00;68091.63;5077999;28;20067;-79
2021/04/09 03:35:51;;;;;;;;;;;;;;;-143.98;100.00;68091.63;5064892;28;20044;-80
2021/04/09 03:38:18;;;;;;;22.27;12.43;;;;;;;-143.98;100.00;68091.63;5065051;28;20123;-81
2021/04/09 03:40:45;;;;;;;21.20;12.95;;;;;;;-143.98;100.00;68091.63;5080829;28;20505;-82
2021/04/09 03:43:12;;;;;;;24.00;12.07;;;;;;;-143.98;100.00;68091.63;5081257;28;20060;-81
2021/04/09 03:45:39;;;;;;;26.27;12.27;;;;;;;-143.98;100.00;68091.63;5079849;28;20048;-80
2021/04/09 03:48:06;;;;;;;26.17;12.23;;;;;;;-143.98;100.00;68091.63;5082319;28;20094;-81
2021/04/09 03:50:33;;;;;;;25.33;12.65;;;;;;;-143.98;100.00;68091.63;5081626;28;20066;-82
2021/04/09 03:52:59;;;;;;;24.35;12.57;;;;;;;-143.98;100.00;68091.63;5080522;28;20060;-81
2021/04/09 03:55:25;;;;;;;27.30;12.75;;;;;;;-143.98;100.00;68091.63;5064096;28;20071;-81
2021/04/09 03:57:54;;;;;;;24.65;12.05;;;;;;;-143.98;100.00;68091.63;5081507;28;20060;-81
2021/04/09 04:00:25;;;;;;;20.65;11.35;;;;;;;-143.98;100.00;68091.63;5082925;28;20435;-82
2021/04/09 04:02:54;;;;;;;26.90;12.50;;;;;;;-143.98;100.00;68091.63;5098825;28;20125;-81
2021/04/09 04:05:21;;;;;;;23.17;12.52;;;;;;;-143.98;100.00;68091.63;5080449;28;20155;-81
2021/04/09 04:07:47;;;;;;;20.60;12.13;;;;;;;-143.98;100.00;68091.63;5068976;28;20067;-80
2021/04/09 04:10:29;;;;;;;25.52;12.30;;;;;;;-143.98;100.00;68091.63;5093571;28;20060;-80
2021/04/09 04:12:56;;;;;;;25.92;12.23;;;;;;;-143.98;100.00;68091.63;5091595;28;20128;-80
2021/04/09 04:15:22;;;;;;;26.88;11.68;;;;;;;-143.98;100.00;68091.63;5094461;28;20109;-81
2021/04/09 04:17:51;;;;;;;24.48;11.77;;;;;;;-143.98;100.00;68091.63;5080268;28;20062;-82
2021/04/09 04:20:27;;;;;;;23.20;12.68;;;;;;;-143.98;100.00;68091.63;5077707;28;20108;-81
2021/04/09 04:22:53;;;;;;;22.52;11.05;;;;;;;-143.98;100.00;68091.63;5090919;28;20064;-81
2021/04/09 04:25:19;;;;;;;22.92;11.68;;;;;;;-143.98;100.00;68091.63;5067623;28;20207;-81
2021/04/09 04:27:46;;;;;;;23.38;12.40;;;;;;;-143.98;100.00;68091.63;5079354;28;20056;-82
2021/04/09 04:30:13;;;;;;;19.88;12.05;;;;;;;-143.98;100.00;68091.63;5079058;28;20325;-81
2021/04/09 04:32:39;;;;;;;24.70;11.85;;;;;;;-143.98;100.00;68091.63;5079021;28;20258;-81
2021/04/09 04:35:06;;;;;;;26.42;13.05;;;;;;;-143.98;100.00;68091.63;5079470;28;20130;-81
2021/04/09 04:37:33;;;;;;;22.65;11.70;;;;;;;-143.98;100.00;68091.63;5063911;28;20110;-81
2021/04/09 04:39:59;;;;;;;25.77;12.23;;;;;;;-143.98;100.00;68091.63;5096368;28;20079;-80
2021/04/09 04:42:28;;;;;;;23.52;11.80;;;;;;;-143.98;100.00;68091.63;5077945;28;20125;-81
2021/04/09 04:44:59;;;;;;;27.50;12.18;;;;;;;-143.98;100.00;68091.63;5060591;28;20055;-82
2021/04/09 04:47:25;;;;;;;23.67;10.70;;;;;;;-143.98;100.00;68091.63;5061699;28;20114;-82
2021/04/09 04:49:51;;;;;;;28.90;12.77;;;;;;;-143.98;100.00;68091.63;5076075;28;20420;-82
2021/04/09 04:52:17;;;;;;;22.30;12.02;;;;;;;-143.98;100.00;68091.63;5058314;28;20056;-82
2021/04/09 04:54:44;;;;;;;21.17;11.68;;;;;;;-143.98;100.00;68091.63;5076495;28;20074;-82
2021/04/09 04:57:13;;;;;;;23.70;12.30;;;;;;;-143.98;100.00;68091.63;5077717;28;20063;-82
2021/04/09 04:59:42;;;;;;;33.35;12.68;;;;;;;-143.98;100.00;68091.63;5061851;28;20048;-81
2021/04/09 05:02:14;;;;;;;24.85;12.27;;;;;;;-143.98;100.00;68091.63;5060222;28;20052;-81
2021/04/09 05:04:42;;;;;;;23.10;12.25;;;;;;;-143.98;100.00;68091.63;5096050;28;20075;-81
2021/04/09 05:07:08;;;;;;;23.88;11.95;;;;;;;-143.98;100.00;68091.63;5078031;28;20060;-81
2021/04/09 05:09:37;;;;;;;34.40;12.65;;;;;;;-143.98;100.00;68091.63;5075517;28;20055;-81
2021/04/09 05:12:06;;;;;;;19.60;12.05;;;;;;;-143.98;100.00;68091.63;5075575;28;20055;-81
2021/04/09 05:14:33;;;;;;;23.60;11.77;;;;;;;-143.98;100.00;68091.63;5058286;28;20135;-81
2021/04/09 05:17:00;;;;;;;24.63;11.45;;;;;;;-143.98;100.00;68091.63;5059490;28;20556;-81
2021/04/09 05:19:26;;;;;;;26.75;11.73;;;;;;;-143.98;100.00;68091.63;5094064;28;20059;-81
2021/04/09 05:21:52;;;;;;;19.23;10.82;;;;;;;-143.98;100.00;68091.63;5061583;28;20319;-81
2021/04/09 05:24:19;;;;;;;28.98;11.55;;;;;;;-143.98;100.00;68091.63;5078844;28;20620;-81
2021/04/09 05:26:47;;;;;;;25.48;12.50;;;;;;;-143.98;100.00;68091.63;5080146;28;20052;-79
2021/04/09 05:29:14;;;;;;;23.55;11.90;;;;;;;-143.98;100.00;68091.63;5094739;28;20511;-80
2021/04/09 05:31:41;;;;;;;23.85;11.77;;;;;;;-143.98;100.00;68091.63;5110397;28;20250;-80
2021/04/09 05:34:09;;;;;;;17.98;10.93;;;;;;;-143.98;100.00;68091.63;5093374;28;20056;-80
2021/04/09 05:36:42;;;;;;;21.45;10.80;;;;;;;-143.98;100.00;68091.63;5079358;28;20057;-80
2021/04/09 05:39:14;;;;;;;22.10;11.10;;;;;;;-143.98;100.00;68091.63;5095134;28;20056;-80
2021/04/09 05:41:40;;;;;;;21.05;10.63;;;;;;;-143.98;100.00;68091.63;5097027;28;20052;-79
2021/04/09 05:44:22;;;;;;;22.15;11.55;;;;;;;-143.98;100.00;68091.63;5097757;28;20074;-79
2021/04/09 05:46:52;;;;;;;39.28;14.00;;;;;;;-143.98;100.00;68091.63;5078948;28;20306;-81
2021/04/09 05:49:21;;;;;;;22.88;10.95;;;;;;;-143.98;100.00;68091.63;5095223;28;20056;-80
2021/04/09 05:51:49;;;;;;;25.58;11.60;;;;;;;-143.98;100.00;68091.63;5077763;28;20051;-80
2021/04/09 05:54:16;;;;;;;23.85;12.02;;;;;;;-143.98;100.00;68091.63;5090870;28;20097;-81
2021/04/09 05:56:43;;;;;;;22.40;11.30;;;;;;;-143.98;100.00;68091.63;5089163;28;20120;-79
2021/04/09 05:59:10;;;;;;;19.55;11.52;;;;;;;-143.98;100.00;68091.63;5088884;28;20162;-79
2021/04/09 06:01:36;;;;;;;27.23;11.32;;;;;;;-143.98;100.00;68091.63;5098785;28;20063;-79
2021/04/09 06:04:05;;;;;;;27.83;11.23;;;;;;;-143.98;100.00;68091.63;5099064;28;20180;-80
2021/04/09 06:06:34;;;;;;;20.88;11.18;;;;;;;-143.98;100.00;68091.63;5082233;28;20055;-80
2021/04/09 06:09:02;;;;;;;25.58;10.45;;;;;;;-143.98;100.00;68091.63;5075233;28;20057;-79
2021/04/09 06:11:30;;;;;;;20.85;11.32;;;;;;;-143.98;100.00;68091.63;5093373;28;20213;-79
2021/04/09 06:13:57;;;;;;;23.35;11.70;;;;;;;-143.98;100.00;68091.63;5076768;28;20079;-79
2021/04/09 06:16:38;;;;;;;20.55;11.77;;;;;;;-143.98;100.00;68091.63;5074789;28;20154;-79
2021/04/09 06:19:08;;;;;;;25.50;11.43;;;;;;;-143.98;100.00;68091.63;5091489;28;20362;-79
2021/04/09 06:21:35;;;;;;;23.27;11.02;;;;;;;-143.98;100.00;68091.63;5073385;28;20075;-79
2021/04/09 06:24:06;;;;;;;22.92;11.45;;;;;;;-143.98;100.00;68091.63;5059660;28;20056;-81
2021/04/09 06:26:36;;;;;;;21.10;11.30;;;;;;;-143.98;100.00;68091.63;5074053;28;20081;-80
2021/04/09 06:29:02;;;;;;;24.50;11.13;;;;;;;-143.98;100.00;68091.63;5072416;28;20105;-81
2021/04/09 06:31:34;;;;;;;22.42;10.65;;;;;;;-143.98;100.00;68091.63;5106375;28;20056;-79
2021/04/09 06:34:01;;;;;;;25.67;9.98;;;;;;;-143.98;100.00;68091.63;5082390;28;20187;-79
2021/04/09 06:36:33;;;;;;;20.02;10.05;;;;;;;-143.98;100.00;68091.63;5066986;28;20188;-79
2021/04/09 06:38:59;;;;;;;30.60;11.98;;;;;;;-143.98;100.00;68091.63;5101722;28;20082;-80
2021/04/09 06:41:29;;;;;;;23.20;10.70;;;;;;;-143.98;100.00;68091.63;5079128;28;20066;-79
2021/04/09 06:43:59;;;;;;;20.90;10.10;;;;;;;-143.98;100.00;68091.63;5056164;28;20091;-79
2021/04/09 06:46:25;;;;;;;22.92;10.85;;;;;;;-143.98;100.00;68091.63;5056631;28;20420;-80
2021/04/09 06:48:51;;;;;;;20.50;9.90;;;;;;;-143.98;100.00;68091.63;5077199;28;20048;-79
2021/04/09 06:51:18;;;;;;;25.00;10.95;;;;;;;-143.98;100.00;68091.63;5082402;28;20052;-80
2021/04/09 06:53:47;;;;;;;25.13;10.48;;;;;;;-143.98;100.00;68091.63;5059860;28;20056;-80
2021/04/09 06:56:22;;;;;;;22.15;10.13;;;;;;;-143.98;100.00;68091.63;5070177;28;20048;-80
2021/04/09 06:59:06;;;;;;;20.65;9.77;;;;;;;-143.98;100.00;68091.63;5071580;28;20426;-81
2021/04/09 07:01:37;;;;;;;16.73;10.35;;;;;;;-143.98;100.00;68091.63;5051421;28;20349;-80
2021/04/09 07:04:10;;;;;;;16.98;9.85;;;;;;;-143.98;100.00;68091.63;5068386;28;20066;-80
2021/04/09 07:06:37;;;;;;;20.05;9.95;;;;;;;-143.98;100.00;68091.63;5051141;28;20052;-80
2021/04/09 07:09:07;;;;;;;20.35;11.30;;;;;;;-143.98;100.00;68091.63;5052336;28;20178;-81
2021/04/09 07:11:39;;;;;;;18.92;10.20;;;;;;;-143.98;100.00;68091.63;5074990;28;20079;-81
2021/04/09 07:14:06;;;;;;;17.13;8.65;;;;;;;-143.98;100.00;68091.63;5092759;28;20052;-81
2021/04/09 07:16:55;;;;;;;16.05;9.23;;;;;;;-143.98;100.00;68091.63;5065399;28;20060;-81
2021/04/09 07:19:36;;;;;;;20.60;10.07;;;;;;;-143.98;100.00;68091.63;5091957;28;20067;-79
2021/04/09 07:22:10;;;;;;;18.05;10.00;;;;;;;-143.98;100.00;68091.63;5096524;28;20071;-80
2021/04/09 07:24:37;;;;;;;19.65;9.98;;;;;;;-143.98;100.00;68091.63;5078114;28;20052;-80
2021/04/09 07:27:08;;;;;;;17.05;9.63;;;;;;;-143.98;100.00;68091.63;5114304;28;20063;-80
2021/04/09 07:29:39;;;;;;;25.35;9.32;;;;;;;-143.98;100.00;68091.63;5109010;28;20043;-80
2021/04/09 07:32:24;;;;;;;19.60;10.35;;;;;;;-143.98;100.00;68091.63;5105746;28;20051;-79
2021/04/09 07:34:59;;;;;;;17.45;9.75;;;;;;;-143.98;100.00;68091.63;5106872;28;20079;-79
2021/04/09 07:37:28;;;;;;;16.63;8.95;;;;;;;-143.98;100.00;68091.63;5108017;28;20073;-80
2021/04/09 07:39:58;;;;;;;15.40;8.45;;;;;;;-143.98;100.00;68091.63;5105742;28;20112;-80
2021/04/09 07:42:32;;;;;;;15.77;9.32;;;;;;;-143.98;100.00;68091.63;5117996;28;20062;-81
2021/04/09 07:45:01;;;;;;;18.60;8.93;;;;;;;-143.98;100.00;68091.63;5095893;28;20117;-81
2021/04/09 07:47:28;;;;;;;19.27;8.93;;;;;;;-143.98;100.00;68091.63;5096848;28;20366;-80
2021/04/09 07:50:43;;;;;;;16.17;8.57;;;;;;;-143.98;100.00;68091.63;5096392;28;20070;-80
2021/04/09 07:53:18;;;;;;;19.52;9.40;;;;;;;-143.98;100.00;68091.63;5093078;28;20329;-81
2021/04/09 07:55:45;;;;;;;15.98;8.43;;;;;;;-143.98;100.00;68091.63;5076938;28;20350;-80
2021/04/09 07:58:18;;;;;;;19.48;8.43;;;;;;;-143.98;100.00;68091.63;5114056;28;20056;-81
2021/04/09 08:00:51;;;;;;;15.23;9.48;;;;;;;-143.98;100.00;68091.63;5114384;28;20094;-81
2021/04/09 08:03:41;;;;;;;17.20;9.27;;;;;;;-143.98;100.00;68091.63;5097222;28;20047;-81
2021/04/09 08:06:20;;;;;;;14.75;8.68;;;;;;;-143.98;100.00;68091.63;5078807;28;20051;-80
2021/04/09 08:08:49;;;;;;;16.23;8.73;;;;;;;-143.98;100.00;68091.63;5105755;28;20056;-81
2021/04/09 08:11:33;;;;;;;20.52;9.07;;;;;;;-143.98;100.00;68091.63;5108071;28;20058;-80
2021/04/09 08:14:16;;;;;;;19.70;8.68;;;;;;;-143.98;100.00;68091.63;5086969;28;20073;-80
2021/04/09 08:16:46;;;;;;;19.23;8.75;;;;;;;-143.98;100.00;68091.63;5115954;28;20040;-81
2021/04/09 08:19:41;;;;;;;15.65;8.25;;;;;;;-143.98;100.00;68091.63;5097125;28;20231;-82
2021/04/09 08:22:08;;;;;;;17.20;9.40;;;;;;;-143.98;100.00;68091.63;5112919;28;20051;-81
2021/04/09 08:24:37;;;;;;;20.63;9.23;;;;;;;-143.98;100.00;68091.63;5078382;28;20095;-80
2021/04/09 08:27:12;;;;;;;13.60;8.52;;;;;;;-143.98;100.00;68091.63;5098832;28;20119;-81
2021/04/09 08:29:43;;;;;;;18.85;8.32;;;;;;;-143.98;100.00;68091.63;5079111;28;20066;-80
2021/04/09 08:32:11;;;;;;;16.38;9.13;;;;;;;-143.98;100.00;68091.63;5096396;28;20124;-81
2021/04/09 08:34:40;;;;;;;16.13;8.50;;;;;;;-143.98;100.00;68091.63;5094688;28;20304;-81
2021/04/09 08:37:18;;;;;;;17.88;9.15;;;;;;;-143.98;100.00;68091.63;5094538;28;20051;-81
2021/04/09 08:39:44;;;;;;;;;;;;;;;-143.98;100.00;68091.63;5097066;28;20079;-82
2021/04/09 08:42:10;;;;;;;15.20;7.60;;;;;;;-143.98;100.00;68091.63;5093399;28;19930;-81
2021/04/09 08:44:43;;;;;;;12.82;8.07;;;;;;;-143.98;100.00;68091.63;5076300;28;20197;-79
2021/04/09 08:47:14;;;;;;;16.70;8.55;;;;;;;-143.98;100.00;68091.63;5100757;28;20113;-81
2021/04/09 08:49:41;;;;;;;13.25;8.43;;;;;;;-143.98;100.00;68091.63;5094484;28;20342;-80
2021/04/09 08:52:08;;;;;;;19.52;8.90;;;;;;;-143.98;100.00;68091.63;5093507;28;20104;-80
2021/04/09 08:54:34;;;;;;;13.85;8.93;;;;;;;-143.98;100.00;68091.63;5092266;28;20051;-82
2021/04/09 08:57:05;;;;;;;21.00;8.65;;;;;;;-143.98;100.00;68091.63;5073206;28;20273;-80
2021/04/09 08:59:38;;;;;;;15.20;8.32;;;;;;;-143.98;100.00;68091.63;5093335;28;20116;-81
2021/04/09 09:02:16;;;;;;;13.50;8.10;;;;;;;-143.98;100.00;68091.63;5110350;28;20246;-80
2021/04/09 09:05:08;;;;;;;14.60;8.27;;;;;;;-143.98;100.00;68091.63;5073563;28;20083;-81
2021/04/09 09:07:43;;;;;;;12.00;7.63;;;;;;;-143.98;100.00;68091.63;5091564;28;20197;-80
2021/04/09 09:10:28;;;;;;;16.50;7.60;;;;;;;-143.98;100.00;68091.63;5090414;28;20078;-81
2021/04/09 09:13:04;;;;;;;13.95;7.55;;;;;;;-143.98;100.00;68091.63;5109001;28;20051;-80
2021/04/09 09:15:45;;;;;;;14.07;7.87;;;;;;;-143.98;100.00;68091.63;5092475;28;20119;-81
2021/04/09 09:18:31;;;;;;;13.95;7.30;;;;;;;-143.98;100.00;68091.63;5109187;28;20275;-81
2021/04/09 09:21:09;;;;;;;16.00;8.13;;;;;;;-143.98;100.00;68091.63;5108239;28;20048;-81
2021/04/09 09:23:41;;;;;;;17.75;7.95;;;;;;;-143.98;100.00;68091.63;5075904;28;20052;-81
2021/04/09 09:26:40;;;;;;;17.50;8.27;;;;;;;-143.98;100.00;68091.63;5070358;28;20273;-80
2021/04/09 09:29:28;;;;;;;12.52;7.75;;;;;;;-143.98;100.00;68091.63;5067790;28;20082;-81
2021/04/09 09:32:06;;;;;;;13.80;7.93;;;;;;;-143.98;100.00;68091.63;5055232;28;20067;-81
2021/04/09 09:34:45;;;;;;;16.85;7.63;;;;;;;-143.98;100.00;68091.63;5053793;28;20078;-81
2021/04/09 09:37:14;;;;;;;15.63;7.85;;;;;;;-143.98;100.00;68091.63;5052886;28;20171;-81
2021/04/09 09:39:46;;;;;;;13.10;8.63;;;;;;;-143.98;100.00;68091.63;5088875;28;20341;-81
2021/04/09 09:42:17;;;;;;;13.27;7.78;;;;;;;-143.98;100.00;68091.63;5068561;28;20066;-81
2021/04/09 09:44:47;;;;;;;13.90;8.18;;;;;;;-143.98;100.00;68091.63;5068001;28;20072;-81
2021/04/09 09:47:16;;;;;;;15.80;8.35;;;;;;;-143.98;100.00;68091.63;5069750;28;20091;-81
2021/04/09 09:50:01;;;;;;;13.55;8.13;;;;;;;-143.98;100.00;68091.63;5067832;28;20299;-81
2021/04/09 09:52:47;;;;;;;14.75;8.43;;;;;;;-143.98;100.00;68091.63;5069486;28;20078;-83
2021/04/09 09:55:21;;;;;;;18.05;8.25;;;;;;;-143.98;100.00;68091.63;5070011;28;20071;-82
2021/04/09 09:58:24;;;;;;;15.02;8.70;;;;;;;-143.98;100.00;68091.63;5071971;28;20052;-82
2021/04/09 10:01:08;;;;;;;14.90;8.05;;;;;;;-143.98;100.00;68091.63;5055519;28;20183;-83
2021/04/09 10:03:37;;;;;;;14.23;8.20;;;;;;;-143.98;100.00;68091.63;5069294;28;20121;-83
2021/04/09 10:06:14;;;;;;;13.05;7.55;;;;;;;-143.98;100.00;68091.63;5071643;28;20214;-82
2021/04/09 10:08:59;;;;;;;16.47;7.67;;;;;;;-143.98;100.00;68091.63;5058430;28;20310;-82
2021/04/09 10:11:26;;;;;;;11.18;6.90;;;;;;;-143.98;100.00;68091.63;5103323;28;20422;-83
2021/04/09 10:13:56;;;;;;;13.13;6.70;;;;;;;-143.98;100.00;68091.63;5082019;28;20054;-83
2021/04/09 10:16:26;;;;;;;12.98;6.50;;;;;;;-143.98;100.00;68091.63;5070589;28;20056;-82
2021/04/09 10:18:57;;;;;;;14.70;6.88;;;;;;;-143.98;100.00;68091.63;5102753;28;20063;-81
2021/04/09 10:21:35;;;;;;;9.55;6.63;;;;;;;-143.98;100.00;68091.63;5090818;28;20387;-84
2021/04/09 10:24:06;;;;;;;13.43;6.82;;;;;;;-143.98;100.00;68091.63;5076923;28;20471;-82
2021/04/09 10:26:39;;;;;;;9.52;6.25;;;;;;;-143.98;100.00;68091.63;5094625;28;20048;-83
2021/04/09 10:29:37;;;;;;;11.98;6.60;;;;;;;-143.98;100.00;68091.63;5076003;28;20423;-83
2021/04/09 10:32:14;;;;;;;12.05;6.82;;;;;;;-143.98;100.00;68091.63;5066032;28;20233;-82
2021/04/09 10:34:45;;;;;;;9.88;6.45;;;;;;;-143.98;100.00;68091.63;5064550;28;20104;-82
2021/04/09 10:37:48;;;;;;;13.38;6.82;;;;;;;-143.98;100.00;68091.63;5055533;28;20305;-83
2021/04/09 10:40:20;;;;;;;12.35;6.03;;;;;;;-143.98;100.00;68091.63;5073796;28;20396;-83
2021/04/09 10:43:05;;;;;;;11.88;5.75;;;;;;;-143.98;100.00;68091.63;5088393;28;20285;-83
2021/04/09 10:45:31;;;;;;;13.50;6.25;;;;;;;-143.98;100.00;68091.63;5073407;28;20075;-82
2021/04/09 10:48:01;;;;;;;14.20;6.15;;;;;;;-143.98;100.00;68091.63;5075695;28;20082;-82
2021/04/09 10:50:27;;;;;;;9.73;6.07;;;;;;;-143.98;100.00;68091.63;5091814;28;20048;-82
2021/04/09 10:52:54;;;;;;;13.32;6.25;;;;;;;-143.98;100.00;68091.63;5074470;28;20271;-82
2021/04/09 10:55:36;;;;;;;11.93;6.65;;;;;;;-143.98;100.00;68091.63;5057047;28;20078;-81
2021/04/09 10:58:06;;;;;;;11.10;6.57;;;;;;;-143.98;100.00;68091.63;5054877;28;20368;-82
2021/04/09 11:00:32;;;;;;;12.80;6.20;;;;;;;-143.98;100.00;68091.63;5073493;28;20234;-83
2021/04/09 11:02:59;;;;;;;11.52;6.60;;;;;;;-143.98;100.00;68091.63;5071616;28;20306;-83
2021/04/09 11:05:34;;;;;;;12.95;6.00;;;;;;;-143.98;100.00;68091.63;5054718;28;20324;-82
2021/04/09 11:08:08;;;;;;;14.40;5.93;;;;;;;-143.98;100.00;68091.63;5075938;28;20114;-82
2021/04/09 11:10:36;;;;;;;10.68;6.55;;;;;;;-143.98;100.00;68091.63;5073638;28;20136;-81
2021/04/09 11:13:04;;;;;;;9.77;5.63;;;;;;;-143.98;100.00;68091.63;5057506;28;20054;-83
2021/04/09 11:15:46;;;;;;;11.10;6.32;;;;;;;-143.98;100.00;68091.63;5072634;28;20331;-82